Terminal Aerodrome Forecast
Issued by NWS Grand Forks, ND

Home | Current Version | Previous Version | Text Only | Print | Product List | Glossary Off
Versions: 1 2 3 4 5 6 7 8 9 10 11 12 13 14 15 16 17 18

000
FTUS43 KFGF 281100
TAFFAR
TAF
KFAR 281120Z 2812/2912 16015G25KT P6SM OVC007
     FM281600 16012KT P6SM OVC010
     FM282100 VRB06KT P6SM OVC012
     FM290300 33020KT P6SM OVC015=

USA.gov is the U.S. government's official web portal to all federal, state and local government web resources and services.